sensor_id;sensor_type;location;lat;lon;timestamp;P1;durP1;ratioP1;P2;durP2;ratioP2
68864;SDS011;55898;52.196;4.420;2022-07-23T00:01:20;1.25;;;1.25;;
68864;SDS011;55898;52.196;4.420;2022-07-23T00:03:47;1.25;;;1.25;;
68864;SDS011;55898;52.196;4.420;2022-07-23T00:06:12;1.30;;;1.30;;
68864;SDS011;55898;52.196;4.420;2022-07-23T00:08:38;1.32;;;1.32;;
68864;SDS011;55898;52.196;4.420;2022-07-23T00:11:03;1.41;;;1.41;;
68864;SDS011;55898;52.196;4.420;2022-07-23T00:13:29;1.36;;;1.36;;
68864;SDS011;55898;52.196;4.420;2022-07-23T00:15:55;1.41;;;1.41;;
68864;SDS011;55898;52.196;4.420;2022-07-23T00:18:20;1.45;;;1.45;;
68864;SDS011;55898;52.196;4.420;2022-07-23T00:20:47;1.24;;;1.24;;
68864;SDS011;55898;52.196;4.420;2022-07-23T00:23:12;1.48;;;1.48;;
68864;SDS011;55898;52.196;4.420;2022-07-23T00:25:38;1.56;;;1.56;;
68864;SDS011;55898;52.196;4.420;2022-07-23T00:28:04;1.67;;;1.67;;
68864;SDS011;55898;52.196;4.420;2022-07-23T00:30:30;1.52;;;1.52;;
68864;SDS011;55898;52.196;4.420;2022-07-23T00:32:58;1.54;;;1.54;;
68864;SDS011;55898;52.196;4.420;2022-07-23T00:35:26;1.54;;;1.54;;
68864;SDS011;55898;52.196;4.420;2022-07-23T00:37:54;1.42;;;1.42;;
68864;SDS011;55898;52.196;4.420;2022-07-23T00:40:21;1.36;;;1.36;;
68864;SDS011;55898;52.196;4.420;2022-07-23T00:42:47;1.28;;;1.28;;
68864;SDS011;55898;52.196;4.420;2022-07-23T00:45:12;1.38;;;1.38;;
68864;SDS011;55898;52.196;4.420;2022-07-23T00:47:38;1.56;;;1.56;;
68864;SDS011;55898;52.196;4.420;2022-07-23T00:50:04;1.54;;;1.54;;
68864;SDS011;55898;52.196;4.420;2022-07-23T00:52:32;1.52;;;1.52;;
68864;SDS011;55898;52.196;4.420;2022-07-23T00:54:59;1.33;;;1.33;;
68864;SDS011;55898;52.196;4.420;2022-07-23T00:57:24;1.44;;;1.44;;
68864;SDS011;55898;52.196;4.420;2022-07-23T00:59:50;1.47;;;1.47;;
68864;SDS011;55898;52.196;4.420;2022-07-23T01:02:15;1.59;;;1.59;;
68864;SDS011;55898;52.196;4.420;2022-07-23T01:04:41;1.71;;;1.71;;
68864;SDS011;55898;52.196;4.420;2022-07-23T01:07:07;1.70;;;1.70;;
68864;SDS011;55898;52.196;4.420;2022-07-23T01:09:32;1.69;;;1.69;;
68864;SDS011;55898;52.196;4.420;2022-07-23T01:11:58;1.68;;;1.68;;
68864;SDS011;55898;52.196;4.420;2022-07-23T01:14:25;1.60;;;1.60;;
68864;SDS011;55898;52.196;4.420;2022-07-23T01:16:50;1.75;;;1.75;;
68864;SDS011;55898;52.196;4.420;2022-07-23T01:19:16;1.82;;;1.82;;
68864;SDS011;55898;52.196;4.420;2022-07-23T01:21:44;1.85;;;1.85;;
68864;SDS011;55898;52.196;4.420;2022-07-23T01:24:12;1.67;;;1.67;;
68864;SDS011;55898;52.196;4.420;2022-07-23T01:26:39;1.79;;;1.79;;
68864;SDS011;55898;52.196;4.420;2022-07-23T01:29:08;1.73;;;1.73;;
68864;SDS011;55898;52.196;4.420;2022-07-23T01:31:33;1.62;;;1.62;;
68864;SDS011;55898;52.196;4.420;2022-07-23T01:33:59;1.92;;;1.92;;
68864;SDS011;55898;52.196;4.420;2022-07-23T01:36:24;1.82;;;1.82;;
68864;SDS011;55898;52.196;4.420;2022-07-23T01:38:50;1.68;;;1.68;;
68864;SDS011;55898;52.196;4.420;2022-07-23T01:41:15;1.69;;;1.69;;
68864;SDS011;55898;52.196;4.420;2022-07-23T01:43:41;1.71;;;1.71;;
68864;SDS011;55898;52.196;4.420;2022-07-23T01:46:07;1.71;;;1.71;;
68864;SDS011;55898;52.196;4.420;2022-07-23T01:48:33;1.75;;;1.75;;
68864;SDS011;55898;52.196;4.420;2022-07-23T01:50:58;1.74;;;1.74;;
68864;SDS011;55898;52.196;4.420;2022-07-23T01:53:24;1.89;;;1.89;;
68864;SDS011;55898;52.196;4.420;2022-07-23T01:55:49;1.88;;;1.88;;
68864;SDS011;55898;52.196;4.420;2022-07-23T01:58:14;1.73;;;1.73;;
68864;SDS011;55898;52.196;4.420;2022-07-23T02:00:40;1.85;;;1.85;;
68864;SDS011;55898;52.196;4.420;2022-07-23T02:03:06;1.67;;;1.67;;
68864;SDS011;55898;52.196;4.420;2022-07-23T02:05:31;1.78;;;1.78;;
68864;SDS011;55898;52.196;4.420;2022-07-23T02:07:58;1.85;;;1.85;;
68864;SDS011;55898;52.196;4.420;2022-07-23T02:10:25;1.87;;;1.87;;
68864;SDS011;55898;52.196;4.420;2022-07-23T02:12:51;1.90;;;1.90;;
68864;SDS011;55898;52.196;4.420;2022-07-23T02:15:17;1.57;;;1.57;;
68864;SDS011;55898;52.196;4.420;2022-07-23T02:17:43;1.77;;;1.77;;
68864;SDS011;55898;52.196;4.420;2022-07-23T02:20:08;1.68;;;1.68;;
68864;SDS011;55898;52.196;4.420;2022-07-23T02:22:35;1.77;;;1.77;;
68864;SDS011;55898;52.196;4.420;2022-07-23T02:25:01;1.75;;;1.75;;
68864;SDS011;55898;52.196;4.420;2022-07-23T02:27:28;1.75;;;1.75;;
68864;SDS011;55898;52.196;4.420;2022-07-23T02:29:53;2.23;;;2.23;;
68864;SDS011;55898;52.196;4.420;2022-07-23T02:32:19;2.18;;;2.18;;
68864;SDS011;55898;52.196;4.420;2022-07-23T02:34:46;1.88;;;1.88;;
68864;SDS011;55898;52.196;4.420;2022-07-23T02:37:13;1.66;;;1.66;;
68864;SDS011;55898;52.196;4.420;2022-07-23T02:39:39;1.82;;;1.82;;
68864;SDS011;55898;52.196;4.420;2022-07-23T02:42:04;1.86;;;1.86;;
68864;SDS011;55898;52.196;4.420;2022-07-23T02:44:30;1.83;;;1.83;;
68864;SDS011;55898;52.196;4.420;2022-07-23T02:46:55;1.82;;;1.82;;
68864;SDS011;55898;52.196;4.420;2022-07-23T02:49:21;1.73;;;1.73;;
68864;SDS011;55898;52.196;4.420;2022-07-23T02:51:47;1.66;;;1.66;;
68864;SDS011;55898;52.196;4.420;2022-07-23T02:54:12;1.75;;;1.75;;
68864;SDS011;55898;52.196;4.420;2022-07-23T02:56:38;1.68;;;1.68;;
68864;SDS011;55898;52.196;4.420;2022-07-23T02:59:03;1.59;;;1.59;;
68864;SDS011;55898;52.196;4.420;2022-07-23T03:01:29;1.66;;;1.66;;
68864;SDS011;55898;52.196;4.420;2022-07-23T03:03:54;1.67;;;1.67;;
68864;SDS011;55898;52.196;4.420;2022-07-23T03:06:20;1.78;;;1.78;;
68864;SDS011;55898;52.196;4.420;2022-07-23T03:08:45;1.73;;;1.73;;
68864;SDS011;55898;52.196;4.420;2022-07-23T03:11:11;1.70;;;1.70;;
68864;SDS011;55898;52.196;4.420;2022-07-23T03:13:37;1.57;;;1.57;;
68864;SDS011;55898;52.196;4.420;2022-07-23T03:16:03;1.57;;;1.57;;
68864;SDS011;55898;52.196;4.420;2022-07-23T03:18:29;1.66;;;1.66;;
68864;SDS011;55898;52.196;4.420;2022-07-23T03:20:55;1.70;;;1.70;;
68864;SDS011;55898;52.196;4.420;2022-07-23T03:23:20;1.74;;;1.74;;
68864;SDS011;55898;52.196;4.420;2022-07-23T03:25:46;1.78;;;1.78;;
68864;SDS011;55898;52.196;4.420;2022-07-23T03:28:16;1.70;;;1.70;;
68864;SDS011;55898;52.196;4.420;2022-07-23T03:30:43;1.70;;;1.70;;
68864;SDS011;55898;52.196;4.420;2022-07-23T03:33:15;1.67;;;1.67;;
68864;SDS011;55898;52.196;4.420;2022-07-23T03:35:42;1.94;;;1.94;;
68864;SDS011;55898;52.196;4.420;2022-07-23T03:38:08;1.70;;;1.70;;
68864;SDS011;55898;52.196;4.420;2022-07-23T03:40:33;1.88;;;1.88;;
68864;SDS011;55898;52.196;4.420;2022-07-23T03:42:59;1.68;;;1.68;;
68864;SDS011;55898;52.196;4.420;2022-07-23T03:45:24;1.67;;;1.67;;
68864;SDS011;55898;52.196;4.420;2022-07-23T03:47:50;1.56;;;1.56;;
68864;SDS011;55898;52.196;4.420;2022-07-23T03:50:15;1.63;;;1.63;;
68864;SDS011;55898;52.196;4.420;2022-07-23T03:52:41;1.81;;;1.81;;
68864;SDS011;55898;52.196;4.420;2022-07-23T03:55:07;1.79;;;1.79;;
68864;SDS011;55898;52.196;4.420;2022-07-23T03:57:32;1.76;;;1.76;;
68864;SDS011;55898;52.196;4.420;2022-07-23T03:59:58;1.67;;;1.67;;
68864;SDS011;55898;52.196;4.420;2022-07-23T04:02:23;1.65;;;1.65;;
68864;SDS011;55898;52.196;4.420;2022-07-23T04:04:49;1.65;;;1.65;;
68864;SDS011;55898;52.196;4.420;2022-07-23T04:07:14;1.66;;;1.66;;
68864;SDS011;55898;52.196;4.420;2022-07-23T04:09:42;1.64;;;1.64;;
68864;SDS011;55898;52.196;4.420;2022-07-23T04:12:08;1.71;;;1.71;;
68864;SDS011;55898;52.196;4.420;2022-07-23T04:14:33;1.53;;;1.53;;
68864;SDS011;55898;52.196;4.420;2022-07-23T04:16:59;1.54;;;1.54;;
68864;SDS011;55898;52.196;4.420;2022-07-23T04:19:25;1.52;;;1.52;;
68864;SDS011;55898;52.196;4.420;2022-07-23T04:21:51;1.46;;;1.46;;
68864;SDS011;55898;52.196;4.420;2022-07-23T04:24:17;1.53;;;1.53;;
68864;SDS011;55898;52.196;4.420;2022-07-23T04:26:43;1.61;;;1.61;;
68864;SDS011;55898;52.196;4.420;2022-07-23T04:29:09;1.43;;;1.43;;
68864;SDS011;55898;52.196;4.420;2022-07-23T04:31:35;1.55;;;1.55;;
68864;SDS011;55898;52.196;4.420;2022-07-23T04:34:00;1.54;;;1.54;;
68864;SDS011;55898;52.196;4.420;2022-07-23T04:36:26;1.58;;;1.58;;
68864;SDS011;55898;52.196;4.420;2022-07-23T04:38:51;1.69;;;1.69;;
68864;SDS011;55898;52.196;4.420;2022-07-23T04:41:17;1.59;;;1.59;;
68864;SDS011;55898;52.196;4.420;2022-07-23T04:43:42;1.57;;;1.57;;
68864;SDS011;55898;52.196;4.420;2022-07-23T04:46:08;1.74;;;1.74;;
68864;SDS011;55898;52.196;4.420;2022-07-23T04:48:35;1.85;;;1.85;;
68864;SDS011;55898;52.196;4.420;2022-07-23T04:51:01;1.77;;;1.77;;
68864;SDS011;55898;52.196;4.420;2022-07-23T04:53:26;1.73;;;1.73;;
68864;SDS011;55898;52.196;4.420;2022-07-23T04:55:52;1.70;;;1.70;;
68864;SDS011;55898;52.196;4.420;2022-07-23T04:58:17;1.67;;;1.67;;
68864;SDS011;55898;52.196;4.420;2022-07-23T05:00:43;1.77;;;1.77;;
68864;SDS011;55898;52.196;4.420;2022-07-23T05:03:08;1.81;;;1.81;;
68864;SDS011;55898;52.196;4.420;2022-07-23T05:05:33;1.68;;;1.68;;
68864;SDS011;55898;52.196;4.420;2022-07-23T05:07:59;1.72;;;1.72;;
68864;SDS011;55898;52.196;4.420;2022-07-23T05:10:24;1.75;;;1.75;;
68864;SDS011;55898;52.196;4.420;2022-07-23T05:12:50;1.87;;;1.87;;
68864;SDS011;55898;52.196;4.420;2022-07-23T05:15:15;2.12;;;2.12;;
68864;SDS011;55898;52.196;4.420;2022-07-23T05:17:41;2.07;;;2.07;;
68864;SDS011;55898;52.196;4.420;2022-07-23T05:20:06;2.23;;;2.23;;
68864;SDS011;55898;52.196;4.420;2022-07-23T05:22:32;2.18;;;2.18;;
68864;SDS011;55898;52.196;4.420;2022-07-23T05:24:58;2.20;;;2.20;;
68864;SDS011;55898;52.196;4.420;2022-07-23T05:27:23;2.31;;;2.31;;
68864;SDS011;55898;52.196;4.420;2022-07-23T05:29:49;2.30;;;2.30;;
68864;SDS011;55898;52.196;4.420;2022-07-23T05:32:14;2.26;;;2.26;;
68864;SDS011;55898;52.196;4.420;2022-07-23T05:34:40;2.36;;;2.36;;
68864;SDS011;55898;52.196;4.420;2022-07-23T05:37:05;2.13;;;2.13;;
68864;SDS011;55898;52.196;4.420;2022-07-23T05:39:31;2.20;;;2.20;;
68864;SDS011;55898;52.196;4.420;2022-07-23T05:41:56;2.02;;;2.02;;
68864;SDS011;55898;52.196;4.420;2022-07-23T05:44:22;1.77;;;1.77;;
68864;SDS011;55898;52.196;4.420;2022-07-23T05:46:47;1.73;;;1.73;;
68864;SDS011;55898;52.196;4.420;2022-07-23T05:49:13;1.60;;;1.60;;
68864;SDS011;55898;52.196;4.420;2022-07-23T05:51:38;1.59;;;1.59;;
68864;SDS011;55898;52.196;4.420;2022-07-23T05:54:04;1.64;;;1.64;;
68864;SDS011;55898;52.196;4.420;2022-07-23T05:56:29;1.58;;;1.58;;
68864;SDS011;55898;52.196;4.420;2022-07-23T05:58:55;1.74;;;1.74;;
68864;SDS011;55898;52.196;4.420;2022-07-23T06:01:20;1.56;;;1.56;;
68864;SDS011;55898;52.196;4.420;2022-07-23T06:03:46;1.42;;;1.42;;
68864;SDS011;55898;52.196;4.420;2022-07-23T06:06:11;1.46;;;1.46;;
68864;SDS011;55898;52.196;4.420;2022-07-23T06:08:37;1.52;;;1.52;;
68864;SDS011;55898;52.196;4.420;2022-07-23T06:11:03;1.45;;;1.45;;
68864;SDS011;55898;52.196;4.420;2022-07-23T06:13:29;1.65;;;1.65;;
68864;SDS011;55898;52.196;4.420;2022-07-23T06:15:54;1.42;;;1.42;;
68864;SDS011;55898;52.196;4.420;2022-07-23T06:18:20;1.40;;;1.40;;
68864;SDS011;55898;52.196;4.420;2022-07-23T06:20:45;1.36;;;1.36;;
68864;SDS011;55898;52.196;4.420;2022-07-23T06:23:11;1.45;;;1.45;;
68864;SDS011;55898;52.196;4.420;2022-07-23T06:25:38;1.43;;;1.43;;
68864;SDS011;55898;52.196;4.420;2022-07-23T06:28:03;1.60;;;1.60;;
68864;SDS011;55898;52.196;4.420;2022-07-23T06:30:29;1.35;;;1.35;;
68864;SDS011;55898;52.196;4.420;2022-07-23T06:32:54;1.32;;;1.32;;
68864;SDS011;55898;52.196;4.420;2022-07-23T06:35:20;1.24;;;1.24;;
68864;SDS011;55898;52.196;4.420;2022-07-23T06:37:46;1.20;;;1.20;;
68864;SDS011;55898;52.196;4.420;2022-07-23T06:40:11;1.58;;;1.58;;
68864;SDS011;55898;52.196;4.420;2022-07-23T06:42:38;1.49;;;1.49;;
68864;SDS011;55898;52.196;4.420;2022-07-23T06:45:06;1.21;;;1.21;;
68864;SDS011;55898;52.196;4.420;2022-07-23T06:47:32;1.28;;;1.28;;
68864;SDS011;55898;52.196;4.420;2022-07-23T06:49:58;1.42;;;1.42;;
68864;SDS011;55898;52.196;4.420;2022-07-23T06:52:23;1.22;;;1.22;;
68864;SDS011;55898;52.196;4.420;2022-07-23T06:54:51;1.13;;;1.13;;
68864;SDS011;55898;52.196;4.420;2022-07-23T06:57:17;1.35;;;1.35;;
68864;SDS011;55898;52.196;4.420;2022-07-23T06:59:42;1.26;;;1.26;;
68864;SDS011;55898;52.196;4.420;2022-07-23T07:02:08;1.21;;;1.21;;
68864;SDS011;55898;52.196;4.420;2022-07-23T07:04:34;1.37;;;1.37;;
68864;SDS011;55898;52.196;4.420;2022-07-23T07:06:59;1.36;;;1.36;;
68864;SDS011;55898;52.196;4.420;2022-07-23T07:09:25;1.49;;;1.49;;
68864;SDS011;55898;52.196;4.420;2022-07-23T07:11:51;1.52;;;1.52;;
68864;SDS011;55898;52.196;4.420;2022-07-23T07:14:16;1.24;;;1.24;;
68864;SDS011;55898;52.196;4.420;2022-07-23T07:16:42;1.34;;;1.34;;
68864;SDS011;55898;52.196;4.420;2022-07-23T07:19:07;1.38;;;1.38;;
68864;SDS011;55898;52.196;4.420;2022-07-23T07:21:33;1.50;;;1.50;;
68864;SDS011;55898;52.196;4.420;2022-07-23T07:23:59;1.25;;;1.25;;
68864;SDS011;55898;52.196;4.420;2022-07-23T07:26:25;1.34;;;1.34;;
68864;SDS011;55898;52.196;4.420;2022-07-23T07:28:50;1.43;;;1.43;;
68864;SDS011;55898;52.196;4.420;2022-07-23T07:31:16;1.35;;;1.35;;
68864;SDS011;55898;52.196;4.420;2022-07-23T07:33:42;1.34;;;1.34;;
68864;SDS011;55898;52.196;4.420;2022-07-23T07:36:07;1.24;;;1.24;;
68864;SDS011;55898;52.196;4.420;2022-07-23T07:38:33;1.45;;;1.45;;
68864;SDS011;55898;52.196;4.420;2022-07-23T07:40:59;1.56;;;1.56;;
68864;SDS011;55898;52.196;4.420;2022-07-23T07:43:24;1.38;;;1.38;;
68864;SDS011;55898;52.196;4.420;2022-07-23T07:45:50;1.29;;;1.29;;
68864;SDS011;55898;52.196;4.420;2022-07-23T07:48:15;1.38;;;1.38;;
68864;SDS011;55898;52.196;4.420;2022-07-23T07:50:41;1.43;;;1.43;;
68864;SDS011;55898;52.196;4.420;2022-07-23T07:53:06;1.21;;;1.21;;
68864;SDS011;55898;52.196;4.420;2022-07-23T07:55:32;1.14;;;1.14;;
68864;SDS011;55898;52.196;4.420;2022-07-23T07:57:57;1.24;;;1.24;;
68864;SDS011;55898;52.196;4.420;2022-07-23T08:00:23;1.20;;;1.20;;
68864;SDS011;55898;52.196;4.420;2022-07-23T08:02:50;1.35;;;1.35;;
68864;SDS011;55898;52.196;4.420;2022-07-23T08:05:20;1.29;;;1.29;;
68864;SDS011;55898;52.196;4.420;2022-07-23T08:07:48;1.09;;;1.09;;
68864;SDS011;55898;52.196;4.420;2022-07-23T08:10:14;1.08;;;1.08;;
68864;SDS011;55898;52.196;4.420;2022-07-23T08:12:47;1.23;;;1.23;;
68864;SDS011;55898;52.196;4.420;2022-07-23T08:15:16;1.31;;;1.31;;
68864;SDS011;55898;52.196;4.420;2022-07-23T08:17:45;1.24;;;1.24;;
68864;SDS011;55898;52.196;4.420;2022-07-23T08:20:12;1.24;;;1.24;;
68864;SDS011;55898;52.196;4.420;2022-07-23T08:22:46;1.23;;;1.23;;
68864;SDS011;55898;52.196;4.420;2022-07-23T08:25:20;1.11;;;1.11;;
68864;SDS011;55898;52.196;4.420;2022-07-23T08:27:47;1.21;;;1.21;;
68864;SDS011;55898;52.196;4.420;2022-07-23T08:30:14;1.32;;;1.32;;
68864;SDS011;55898;52.196;4.420;2022-07-23T08:33:16;1.15;;;1.15;;
68864;SDS011;55898;52.196;4.420;2022-07-23T08:35:42;1.33;;;1.33;;
68864;SDS011;55898;52.196;4.420;2022-07-23T08:38:11;1.44;;;1.44;;
68864;SDS011;55898;52.196;4.420;2022-07-23T08:40:41;1.47;;;1.47;;
68864;SDS011;55898;52.196;4.420;2022-07-23T08:43:13;1.31;;;1.31;;
68864;SDS011;55898;52.196;4.420;2022-07-23T08:45:42;1.44;;;1.44;;
68864;SDS011;55898;52.196;4.420;2022-07-23T08:48:20;1.35;;;1.35;;
68864;SDS011;55898;52.196;4.420;2022-07-23T08:50:51;1.37;;;1.37;;
68864;SDS011;55898;52.196;4.420;2022-07-23T08:53:19;1.28;;;1.28;;
68864;SDS011;55898;52.196;4.420;2022-07-23T08:55:46;1.41;;;1.41;;
68864;SDS011;55898;52.196;4.420;2022-07-23T08:58:13;1.25;;;1.25;;
68864;SDS011;55898;52.196;4.420;2022-07-23T09:00:40;1.39;;;1.39;;
68864;SDS011;55898;52.196;4.420;2022-07-23T09:03:06;1.46;;;1.46;;
68864;SDS011;55898;52.196;4.420;2022-07-23T09:05:32;1.28;;;1.28;;
68864;SDS011;55898;52.196;4.420;2022-07-23T09:08:11;1.44;;;1.44;;
68864;SDS011;55898;52.196;4.420;2022-07-23T09:13:24;1.28;;;1.28;;
68864;SDS011;55898;52.196;4.420;2022-07-23T09:15:51;1.42;;;1.42;;
68864;SDS011;55898;52.196;4.420;2022-07-23T09:18:19;1.16;;;1.16;;
68864;SDS011;55898;52.196;4.420;2022-07-23T09:20:44;1.40;;;1.40;;
68864;SDS011;55898;52.196;4.420;2022-07-23T09:23:10;1.41;;;1.41;;
68864;SDS011;55898;52.196;4.420;2022-07-23T09:25:36;1.29;;;1.29;;
68864;SDS011;55898;52.196;4.420;2022-07-23T09:28:01;1.28;;;1.28;;
68864;SDS011;55898;52.196;4.420;2022-07-23T09:30:31;1.49;;;1.49;;
68864;SDS011;55898;52.196;4.420;2022-07-23T09:35:44;1.28;;;1.28;;
68864;SDS011;55898;52.196;4.420;2022-07-23T09:38:10;1.35;;;1.35;;
68864;SDS011;55898;52.196;4.420;2022-07-23T09:40:35;1.37;;;1.37;;
68864;SDS011;55898;52.196;4.420;2022-07-23T09:43:01;1.41;;;1.41;;
68864;SDS011;55898;52.196;4.420;2022-07-23T09:45:27;1.21;;;1.21;;
68864;SDS011;55898;52.196;4.420;2022-07-23T09:47:55;1.17;;;1.17;;
68864;SDS011;55898;52.196;4.420;2022-07-23T09:50:39;1.43;;;1.43;;
68864;SDS011;55898;52.196;4.420;2022-07-23T09:53:06;1.30;;;1.30;;
68864;SDS011;55898;52.196;4.420;2022-07-23T09:55:32;1.63;;;1.63;;
68864;SDS011;55898;52.196;4.420;2022-07-23T09:58:04;1.45;;;1.45;;
68864;SDS011;55898;52.196;4.420;2022-07-23T10:00:32;1.23;;;1.23;;
68864;SDS011;55898;52.196;4.420;2022-07-23T10:02:58;1.37;;;1.37;;
68864;SDS011;55898;52.196;4.420;2022-07-23T10:05:25;1.35;;;1.35;;
68864;SDS011;55898;52.196;4.420;2022-07-23T10:07:52;1.32;;;1.32;;
68864;SDS011;55898;52.196;4.420;2022-07-23T10:10:19;1.50;;;1.50;;
68864;SDS011;55898;52.196;4.420;2022-07-23T10:12:47;1.28;;;1.28;;
68864;SDS011;55898;52.196;4.420;2022-07-23T10:15:26;1.35;;;1.35;;
68864;SDS011;55898;52.196;4.420;2022-07-23T10:17:52;1.24;;;1.24;;
68864;SDS011;55898;52.196;4.420;2022-07-23T10:20:18;1.47;;;1.47;;
68864;SDS011;55898;52.196;4.420;2022-07-23T10:22:48;1.37;;;1.37;;
68864;SDS011;55898;52.196;4.420;2022-07-23T10:25:22;1.38;;;1.38;;
68864;SDS011;55898;52.196;4.420;2022-07-23T10:33:24;1.43;;;1.43;;
68864;SDS011;55898;52.196;4.420;2022-07-23T10:36:11;1.28;;;1.28;;
68864;SDS011;55898;52.196;4.420;2022-07-23T10:38:48;1.35;;;1.35;;
68864;SDS011;55898;52.196;4.420;2022-07-23T10:41:30;1.31;;;1.31;;
68864;SDS011;55898;52.196;4.420;2022-07-23T10:44:07;1.18;;;1.18;;
68864;SDS011;55898;52.196;4.420;2022-07-23T10:47:20;1.41;;;1.41;;
68864;SDS011;55898;52.196;4.420;2022-07-23T10:49:38;1.39;;;1.39;;
68864;SDS011;55898;52.196;4.420;2022-07-23T10:54:49;1.36;;;1.36;;
68864;SDS011;55898;52.196;4.420;2022-07-23T10:57:47;1.16;;;1.16;;
68864;SDS011;55898;52.196;4.420;2022-07-23T11:00:25;1.33;;;1.33;;
68864;SDS011;55898;52.196;4.420;2022-07-23T11:02:55;1.16;;;1.16;;
68864;SDS011;55898;52.196;4.420;2022-07-23T11:05:24;1.27;;;1.27;;
68864;SDS011;55898;52.196;4.420;2022-07-23T11:08:18;1.28;;;1.28;;
68864;SDS011;55898;52.196;4.420;2022-07-23T11:13:30;1.34;;;1.34;;
68864;SDS011;55898;52.196;4.420;2022-07-23T11:16:22;1.24;;;1.24;;
68864;SDS011;55898;52.196;4.420;2022-07-23T11:18:53;1.42;;;1.42;;
68864;SDS011;55898;52.196;4.420;2022-07-23T11:24:06;1.21;;;1.21;;
68864;SDS011;55898;52.196;4.420;2022-07-23T11:31:54;1.36;;;1.36;;
68864;SDS011;55898;52.196;4.420;2022-07-23T11:36:58;1.29;;;1.29;;
68864;SDS011;55898;52.196;4.420;2022-07-23T11:39:25;1.32;;;1.32;;
68864;SDS011;55898;52.196;4.420;2022-07-23T11:41:53;1.24;;;1.24;;
68864;SDS011;55898;52.196;4.420;2022-07-23T11:44:26;1.27;;;1.27;;
68864;SDS011;55898;52.196;4.420;2022-07-23T11:46:56;1.33;;;1.33;;
68864;SDS011;55898;52.196;4.420;2022-07-23T11:49:23;1.20;;;1.20;;
68864;SDS011;55898;52.196;4.420;2022-07-23T11:52:05;1.22;;;1.22;;
68864;SDS011;55898;52.196;4.420;2022-07-23T11:54:52;1.37;;;1.37;;
68864;SDS011;55898;52.196;4.420;2022-07-23T11:57:19;1.34;;;1.34;;
68864;SDS011;55898;52.196;4.420;2022-07-23T11:59:50;1.08;;;1.08;;
68864;SDS011;55898;52.196;4.420;2022-07-23T12:02:20;1.02;;;1.02;;
68864;SDS011;55898;52.196;4.420;2022-07-23T12:04:48;1.04;;;1.04;;
68864;SDS011;55898;52.196;4.420;2022-07-23T12:07:34;1.05;;;1.05;;
68864;SDS011;55898;52.196;4.420;2022-07-23T12:12:37;1.04;;;1.04;;
68864;SDS011;55898;52.196;4.420;2022-07-23T12:15:08;1.10;;;1.10;;
68864;SDS011;55898;52.196;4.420;2022-07-23T12:17:37;1.03;;;1.03;;
68864;SDS011;55898;52.196;4.420;2022-07-23T12:20:08;1.09;;;1.09;;
68864;SDS011;55898;52.196;4.420;2022-07-23T12:22:41;1.03;;;1.03;;
68864;SDS011;55898;52.196;4.420;2022-07-23T12:25:10;0.93;;;0.93;;
68864;SDS011;55898;52.196;4.420;2022-07-23T12:33:26;1.00;;;1.00;;
68864;SDS011;55898;52.196;4.420;2022-07-23T12:35:55;0.87;;;0.87;;
68864;SDS011;55898;52.196;4.420;2022-07-23T12:38:24;0.87;;;0.87;;
68864;SDS011;55898;52.196;4.420;2022-07-23T12:43:22;0.95;;;0.95;;
68864;SDS011;55898;52.196;4.420;2022-07-23T12:45:56;0.91;;;0.91;;
68864;SDS011;55898;52.196;4.420;2022-07-23T12:48:29;1.01;;;1.01;;
68864;SDS011;55898;52.196;4.420;2022-07-23T12:51:00;1.07;;;1.07;;
68864;SDS011;55898;52.196;4.420;2022-07-23T12:53:32;1.07;;;1.07;;
68864;SDS011;55898;52.196;4.420;2022-07-23T12:58:46;0.96;;;0.96;;
68864;SDS011;55898;52.196;4.420;2022-07-23T13:01:23;1.02;;;1.02;;
68864;SDS011;55898;52.196;4.420;2022-07-23T13:09:02;0.95;;;0.95;;
68864;SDS011;55898;52.196;4.420;2022-07-23T13:11:30;1.02;;;1.02;;
68864;SDS011;55898;52.196;4.420;2022-07-23T13:13:56;0.98;;;0.98;;
68864;SDS011;55898;52.196;4.420;2022-07-23T13:16:22;1.11;;;1.11;;
68864;SDS011;55898;52.196;4.420;2022-07-23T13:18:48;0.99;;;0.99;;
68864;SDS011;55898;52.196;4.420;2022-07-23T13:21:13;0.94;;;0.94;;
68864;SDS011;55898;52.196;4.420;2022-07-23T13:23:39;0.89;;;0.89;;
68864;SDS011;55898;52.196;4.420;2022-07-23T13:26:04;1.20;;;1.20;;
68864;SDS011;55898;52.196;4.420;2022-07-23T13:28:30;1.17;;;1.17;;
68864;SDS011;55898;52.196;4.420;2022-07-23T13:30:55;1.16;;;1.16;;
68864;SDS011;55898;52.196;4.420;2022-07-23T13:33:22;1.16;;;1.16;;
68864;SDS011;55898;52.196;4.420;2022-07-23T13:35:49;1.22;;;1.22;;
68864;SDS011;55898;52.196;4.420;2022-07-23T13:38:15;1.29;;;1.29;;
68864;SDS011;55898;52.196;4.420;2022-07-23T13:40:42;1.28;;;1.28;;
68864;SDS011;55898;52.196;4.420;2022-07-23T13:43:09;1.22;;;1.22;;
68864;SDS011;55898;52.196;4.420;2022-07-23T13:45:36;1.21;;;1.21;;
68864;SDS011;55898;52.196;4.420;2022-07-23T13:48:03;1.28;;;1.28;;
68864;SDS011;55898;52.196;4.420;2022-07-23T13:50:29;1.27;;;1.27;;
68864;SDS011;55898;52.196;4.420;2022-07-23T13:52:55;1.38;;;1.38;;
68864;SDS011;55898;52.196;4.420;2022-07-23T13:55:21;1.31;;;1.31;;
68864;SDS011;55898;52.196;4.420;2022-07-23T13:57:47;1.17;;;1.17;;
68864;SDS011;55898;52.196;4.420;2022-07-23T14:00:12;1.28;;;1.28;;
68864;SDS011;55898;52.196;4.420;2022-07-23T14:02:39;1.38;;;1.38;;
68864;SDS011;55898;52.196;4.420;2022-07-23T14:05:06;1.61;;;1.61;;
68864;SDS011;55898;52.196;4.420;2022-07-23T14:07:34;1.57;;;1.57;;
68864;SDS011;55898;52.196;4.420;2022-07-23T14:10:01;1.41;;;1.41;;
68864;SDS011;55898;52.196;4.420;2022-07-23T14:12:26;1.34;;;1.34;;
68864;SDS011;55898;52.196;4.420;2022-07-23T14:14:52;1.31;;;1.31;;
68864;SDS011;55898;52.196;4.420;2022-07-23T14:17:18;1.24;;;1.24;;
68864;SDS011;55898;52.196;4.420;2022-07-23T14:19:43;1.11;;;1.11;;
68864;SDS011;55898;52.196;4.420;2022-07-23T14:22:09;1.30;;;1.30;;
68864;SDS011;55898;52.196;4.420;2022-07-23T14:24:35;1.44;;;1.44;;
68864;SDS011;55898;52.196;4.420;2022-07-23T14:27:00;1.56;;;1.56;;
68864;SDS011;55898;52.196;4.420;2022-07-23T14:29:27;1.52;;;1.52;;
68864;SDS011;55898;52.196;4.420;2022-07-23T14:31:53;1.50;;;1.50;;
68864;SDS011;55898;52.196;4.420;2022-07-23T14:34:18;1.45;;;1.45;;
68864;SDS011;55898;52.196;4.420;2022-07-23T14:36:44;1.36;;;1.36;;
68864;SDS011;55898;52.196;4.420;2022-07-23T14:39:10;1.34;;;1.34;;
68864;SDS011;55898;52.196;4.420;2022-07-23T14:41:37;1.43;;;1.43;;
68864;SDS011;55898;52.196;4.420;2022-07-23T14:44:03;1.20;;;1.20;;
68864;SDS011;55898;52.196;4.420;2022-07-23T14:46:29;1.45;;;1.45;;
68864;SDS011;55898;52.196;4.420;2022-07-23T14:48:55;1.14;;;1.14;;
68864;SDS011;55898;52.196;4.420;2022-07-23T14:51:21;1.11;;;1.11;;
68864;SDS011;55898;52.196;4.420;2022-07-23T14:53:46;1.33;;;1.33;;
68864;SDS011;55898;52.196;4.420;2022-07-23T14:56:12;1.29;;;1.29;;
68864;SDS011;55898;52.196;4.420;2022-07-23T14:58:39;1.20;;;1.20;;
68864;SDS011;55898;52.196;4.420;2022-07-23T15:01:04;1.03;;;1.03;;
68864;SDS011;55898;52.196;4.420;2022-07-23T15:03:30;1.07;;;1.07;;
68864;SDS011;55898;52.196;4.420;2022-07-23T15:05:55;1.04;;;1.04;;
68864;SDS011;55898;52.196;4.420;2022-07-23T15:08:21;0.94;;;0.94;;
68864;SDS011;55898;52.196;4.420;2022-07-23T15:10:46;0.97;;;0.97;;
68864;SDS011;55898;52.196;4.420;2022-07-23T15:13:11;1.04;;;1.04;;
68864;SDS011;55898;52.196;4.420;2022-07-23T15:15:37;1.26;;;1.26;;
68864;SDS011;55898;52.196;4.420;2022-07-23T15:18:03;1.05;;;1.05;;
68864;SDS011;55898;52.196;4.420;2022-07-23T15:20:28;1.06;;;1.06;;
68864;SDS011;55898;52.196;4.420;2022-07-23T15:22:54;1.22;;;1.22;;
68864;SDS011;55898;52.196;4.420;2022-07-23T15:25:20;1.45;;;1.45;;
68864;SDS011;55898;52.196;4.420;2022-07-23T15:27:46;1.33;;;1.33;;
68864;SDS011;55898;52.196;4.420;2022-07-23T15:30:11;1.42;;;1.42;;
68864;SDS011;55898;52.196;4.420;2022-07-23T15:32:37;1.32;;;1.32;;
68864;SDS011;55898;52.196;4.420;2022-07-23T15:35:02;1.40;;;1.40;;